sensor_id;sensor_type;location;lat;lon;timestamp;pressure;altitude;pressure_sealevel;temperature;humidity
61384;BME280;63511;49.346;8.798;2023-04-26T00:01:52;100338.13;;;7.15;72.93
61384;BME280;63511;49.346;8.798;2023-04-26T00:04:18;100345.88;;;7.28;72.64
61384;BME280;63511;49.346;8.798;2023-04-26T00:06:45;100344.88;;;7.16;73.16
61384;BME280;63511;49.346;8.798;2023-04-26T00:09:13;100345.56;;;6.83;73.91
61384;BME280;63511;49.346;8.798;2023-04-26T00:11:39;100338.22;;;7.06;72.65
61384;BME280;63511;49.346;8.798;2023-04-26T00:14:07;100336.38;;;6.94;74.04
61384;BME280;63511;49.346;8.798;2023-04-26T00:16:34;100339.91;;;6.75;74.89
61384;BME280;63511;49.346;8.798;2023-04-26T00:19:00;100353.56;;;6.89;73.20
61384;BME280;63511;49.346;8.798;2023-04-26T00:21:27;100340.25;;;6.90;72.92
61384;BME280;63511;49.346;8.798;2023-04-26T00:23:54;100357.44;;;6.55;75.17
61384;BME280;63511;49.346;8.798;2023-04-26T00:26:21;100346.03;;;6.79;74.28
61384;BME280;63511;49.346;8.798;2023-04-26T00:28:48;100350.06;;;6.87;73.04
61384;BME280;63511;49.346;8.798;2023-04-26T00:31:16;100355.16;;;6.38;74.79
61384;BME280;63511;49.346;8.798;2023-04-26T00:33:43;100357.66;;;6.38;75.20
61384;BME280;63511;49.346;8.798;2023-04-26T00:36:10;100356.03;;;6.38;75.98
61384;BME280;63511;49.346;8.798;2023-04-26T00:38:38;100363.88;;;6.62;74.58
61384;BME280;63511;49.346;8.798;2023-04-26T00:41:05;100353.19;;;6.74;73.30
61384;BME280;63511;49.346;8.798;2023-04-26T00:43:31;100353.31;;;6.56;74.34
61384;BME280;63511;49.346;8.798;2023-04-26T00:45:58;100342.16;;;6.62;74.63
61384;BME280;63511;49.346;8.798;2023-04-26T00:48:26;100345.66;;;6.84;73.00
61384;BME280;63511;49.346;8.798;2023-04-26T00:50:53;100349.03;;;6.75;73.08
61384;BME280;63511;49.346;8.798;2023-04-26T00:53:19;100351.03;;;6.59;74.05
61384;BME280;63511;49.346;8.798;2023-04-26T00:55:46;100353.44;;;6.47;73.55
61384;BME280;63511;49.346;8.798;2023-04-26T00:58:13;100357.44;;;6.45;74.58
61384;BME280;63511;49.346;8.798;2023-04-26T01:00:39;100357.72;;;5.99;75.71
61384;BME280;63511;49.346;8.798;2023-04-26T01:03:06;100360.63;;;6.14;76.39
61384;BME280;63511;49.346;8.798;2023-04-26T01:05:34;100353.31;;;6.46;73.85
61384;BME280;63511;49.346;8.798;2023-04-26T01:08:01;100357.28;;;6.33;73.27
61384;BME280;63511;49.346;8.798;2023-04-26T01:10:28;100362.72;;;5.99;74.91
61384;BME280;63511;49.346;8.798;2023-04-26T01:12:56;100361.06;;;5.71;77.09
61384;BME280;63511;49.346;8.798;2023-04-26T01:15:23;100360.66;;;5.85;77.37
61384;BME280;63511;49.346;8.798;2023-04-26T01:17:52;100361.13;;;6.10;75.67
61384;BME280;63511;49.346;8.798;2023-04-26T01:20:18;100365.50;;;6.12;74.73
61384;BME280;63511;49.346;8.798;2023-04-26T01:22:46;100360.03;;;6.16;74.61
61384;BME280;63511;49.346;8.798;2023-04-26T01:25:13;100360.44;;;6.31;74.07
61384;BME280;63511;49.346;8.798;2023-04-26T01:27:40;100359.75;;;5.84;75.50
61384;BME280;63511;49.346;8.798;2023-04-26T01:30:07;100360.22;;;5.80;75.80
61384;BME280;63511;49.346;8.798;2023-04-26T01:32:34;100362.09;;;5.73;76.48
61384;BME280;63511;49.346;8.798;2023-04-26T01:35:01;100355.22;;;5.80;75.93
61384;BME280;63511;49.346;8.798;2023-04-26T01:37:27;100361.38;;;5.84;74.57
61384;BME280;63511;49.346;8.798;2023-04-26T01:39:55;100363.97;;;5.94;74.34
61384;BME280;63511;49.346;8.798;2023-04-26T01:42:22;100354.38;;;5.61;77.11
61384;BME280;63511;49.346;8.798;2023-04-26T01:44:48;100358.41;;;5.59;76.34
61384;BME280;63511;49.346;8.798;2023-04-26T01:47:15;100357.63;;;5.60;75.43
61384;BME280;63511;49.346;8.798;2023-04-26T01:49:41;100354.47;;;5.81;74.54
61384;BME280;63511;49.346;8.798;2023-04-26T01:52:08;100349.56;;;5.73;74.46
61384;BME280;63511;49.346;8.798;2023-04-26T01:54:34;100346.91;;;5.71;74.52
61384;BME280;63511;49.346;8.798;2023-04-26T01:57:02;100346.91;;;5.71;74.40
61384;BME280;63511;49.346;8.798;2023-04-26T01:59:29;100355.03;;;5.59;75.40
61384;BME280;63511;49.346;8.798;2023-04-26T02:01:55;100351.00;;;5.61;74.50
61384;BME280;63511;49.346;8.798;2023-04-26T02:04:22;100349.88;;;5.57;75.30
61384;BME280;63511;49.346;8.798;2023-04-26T02:06:49;100351.25;;;5.53;76.48
61384;BME280;63511;49.346;8.798;2023-04-26T02:09:16;100343.97;;;5.56;76.75
61384;BME280;63511;49.346;8.798;2023-04-26T02:11:43;100355.84;;;5.49;76.16
61384;BME280;63511;49.346;8.798;2023-04-26T02:14:11;100352.91;;;5.63;75.60
61384;BME280;63511;49.346;8.798;2023-04-26T02:16:38;100347.50;;;5.87;74.15
61384;BME280;63511;49.346;8.798;2023-04-26T02:19:04;100353.00;;;5.83;73.32
61384;BME280;63511;49.346;8.798;2023-04-26T02:21:48;100354.56;;;5.44;73.79
61384;BME280;63511;49.346;8.798;2023-04-26T02:24:15;100365.72;;;5.29;74.52
61384;BME280;63511;49.346;8.798;2023-04-26T02:26:41;100356.13;;;5.14;74.85
61384;BME280;63511;49.346;8.798;2023-04-26T02:29:08;100365.06;;;5.02;75.86
61384;BME280;63511;49.346;8.798;2023-04-26T02:31:36;100364.13;;;5.10;75.75
61384;BME280;63511;49.346;8.798;2023-04-26T02:34:03;100365.25;;;5.14;75.39
61384;BME280;63511;49.346;8.798;2023-04-26T02:36:30;100368.72;;;5.25;75.00
61384;BME280;63511;49.346;8.798;2023-04-26T02:38:57;100366.94;;;5.24;74.54
61384;BME280;63511;49.346;8.798;2023-04-26T02:41:23;100371.63;;;5.29;74.53
61384;BME280;63511;49.346;8.798;2023-04-26T02:43:50;100357.06;;;5.25;74.34
61384;BME280;63511;49.346;8.798;2023-04-26T02:46:16;100374.06;;;5.38;73.83
61384;BME280;63511;49.346;8.798;2023-04-26T02:48:44;100375.91;;;5.11;74.83
61384;BME280;63511;49.346;8.798;2023-04-26T02:51:11;100369.84;;;4.91;75.23
61384;BME280;63511;49.346;8.798;2023-04-26T02:53:38;100367.88;;;4.78;76.20
61384;BME280;63511;49.346;8.798;2023-04-26T02:56:04;100366.53;;;4.82;75.65
61384;BME280;63511;49.346;8.798;2023-04-26T02:58:31;100356.72;;;4.93;74.85
61384;BME280;63511;49.346;8.798;2023-04-26T03:00:57;100364.59;;;5.06;74.73
61384;BME280;63511;49.346;8.798;2023-04-26T03:03:24;100371.53;;;4.82;76.32
61384;BME280;63511;49.346;8.798;2023-04-26T03:05:52;100367.97;;;5.07;74.61
61384;BME280;63511;49.346;8.798;2023-04-26T03:08:18;100372.66;;;5.12;74.34
61384;BME280;63511;49.346;8.798;2023-04-26T03:10:45;100368.44;;;5.03;74.09
61384;BME280;63511;49.346;8.798;2023-04-26T03:13:11;100363.69;;;4.87;75.59
61384;BME280;63511;49.346;8.798;2023-04-26T03:15:42;100370.13;;;4.94;74.80
61384;BME280;63511;49.346;8.798;2023-04-26T03:18:09;100366.66;;;4.83;74.91
61384;BME280;63511;49.346;8.798;2023-04-26T03:20:35;100369.16;;;4.83;75.81
61384;BME280;63511;49.346;8.798;2023-04-26T03:23:03;100367.22;;;4.89;75.08
61384;BME280;63511;49.346;8.798;2023-04-26T03:25:31;100370.03;;;4.84;75.13
61384;BME280;63511;49.346;8.798;2023-04-26T03:27:58;100375.69;;;4.72;75.12
61384;BME280;63511;49.346;8.798;2023-04-26T03:30:24;100370.03;;;4.84;74.91
61384;BME280;63511;49.346;8.798;2023-04-26T03:32:51;100369.47;;;4.78;75.56
61384;BME280;63511;49.346;8.798;2023-04-26T03:35:18;100371.44;;;4.71;75.57
61384;BME280;63511;49.346;8.798;2023-04-26T03:37:45;100366.78;;;4.66;75.45
61384;BME280;63511;49.346;8.798;2023-04-26T03:40:13;100374.47;;;4.59;75.65
61384;BME280;63511;49.346;8.798;2023-04-26T03:42:41;100378.59;;;4.77;75.02
61384;BME280;63511;49.346;8.798;2023-04-26T03:45:07;100375.78;;;4.83;74.81
61384;BME280;63511;49.346;8.798;2023-04-26T03:47:34;100384.72;;;4.62;75.15
61384;BME280;63511;49.346;8.798;2023-04-26T03:50:01;100380.19;;;4.58;75.17
61384;BME280;63511;49.346;8.798;2023-04-26T03:52:27;100383.31;;;4.55;74.89
61384;BME280;63511;49.346;8.798;2023-04-26T03:54:54;100390.78;;;4.83;74.13
61384;BME280;63511;49.346;8.798;2023-04-26T03:57:22;100387.53;;;4.56;75.40
61384;BME280;63511;49.346;8.798;2023-04-26T03:59:48;100386.72;;;4.75;74.47
61384;BME280;63511;49.346;8.798;2023-04-26T04:02:18;100381.72;;;4.75;74.28
61384;BME280;63511;49.346;8.798;2023-04-26T04:04:44;100380.69;;;4.72;73.69
61384;BME280;63511;49.346;8.798;2023-04-26T04:07:11;100382.88;;;4.51;74.98
61384;BME280;63511;49.346;8.798;2023-04-26T04:09:37;100385.16;;;4.31;76.06
61384;BME280;63511;49.346;8.798;2023-04-26T04:12:04;100379.41;;;4.67;74.79
61384;BME280;63511;49.346;8.798;2023-04-26T04:14:32;100374.75;;;4.35;76.36
61384;BME280;63511;49.346;8.798;2023-04-26T04:16:59;100375.78;;;4.28;76.36
61384;BME280;63511;49.346;8.798;2023-04-26T04:19:25;100375.56;;;4.44;75.27
61384;BME280;63511;49.346;8.798;2023-04-26T04:21:52;100378.56;;;4.31;76.08
61384;BME280;63511;49.346;8.798;2023-04-26T04:24:18;100380.63;;;4.26;75.89
61384;BME280;63511;49.346;8.798;2023-04-26T04:26:45;100373.38;;;4.38;75.63
61384;BME280;63511;49.346;8.798;2023-04-26T04:29:11;100381.81;;;4.21;76.60
61384;BME280;63511;49.346;8.798;2023-04-26T04:31:39;100389.94;;;4.19;77.71
61384;BME280;63511;49.346;8.798;2023-04-26T04:34:06;100390.63;;;4.26;77.42
61384;BME280;63511;49.346;8.798;2023-04-26T04:36:33;100393.28;;;4.28;77.19
61384;BME280;63511;49.346;8.798;2023-04-26T04:38:59;100392.44;;;4.19;76.67
61384;BME280;63511;49.346;8.798;2023-04-26T04:41:27;100391.44;;;4.44;75.67
61384;BME280;63511;49.346;8.798;2023-04-26T04:43:53;100394.28;;;4.39;76.35
61384;BME280;63511;49.346;8.798;2023-04-26T04:46:20;100401.78;;;4.30;77.83
61384;BME280;63511;49.346;8.798;2023-04-26T04:48:48;100400.56;;;4.44;76.54
61384;BME280;63511;49.346;8.798;2023-04-26T04:51:15;100391.66;;;4.83;75.28
61384;BME280;63511;49.346;8.798;2023-04-26T04:53:41;100401.19;;;4.87;74.45
61384;BME280;63511;49.346;8.798;2023-04-26T04:56:08;100407.06;;;4.69;74.58
61384;BME280;63511;49.346;8.798;2023-04-26T04:58:35;100406.13;;;4.77;74.76
61384;BME280;63511;49.346;8.798;2023-04-26T05:01:02;100407.06;;;4.69;75.85
61384;BME280;63511;49.346;8.798;2023-04-26T05:03:28;100409.59;;;4.88;75.31
61384;BME280;63511;49.346;8.798;2023-04-26T05:05:57;100414.81;;;4.99;74.65
61384;BME280;63511;49.346;8.798;2023-04-26T05:08:24;100414.75;;;4.89;75.98
61384;BME280;63511;49.346;8.798;2023-04-26T05:10:51;100417.47;;;4.74;77.27
61384;BME280;63511;49.346;8.798;2023-04-26T05:13:17;100428.28;;;4.91;77.51
61384;BME280;63511;49.346;8.798;2023-04-26T05:15:44;100427.38;;;5.18;76.13
61384;BME280;63511;49.346;8.798;2023-04-26T05:18:10;100423.31;;;5.47;75.04
61384;BME280;63511;49.346;8.798;2023-04-26T05:20:37;100428.09;;;5.73;73.48
61384;BME280;63511;49.346;8.798;2023-04-26T05:23:05;100428.84;;;5.91;73.69
61384;BME280;63511;49.346;8.798;2023-04-26T05:25:35;100430.22;;;5.87;73.64
61384;BME280;63511;49.346;8.798;2023-04-26T05:28:01;100425.88;;;5.57;75.73
61384;BME280;63511;49.346;8.798;2023-04-26T05:30:28;100431.25;;;5.81;76.05
61384;BME280;63511;49.346;8.798;2023-04-26T05:32:55;100429.66;;;6.00;75.12
61384;BME280;63511;49.346;8.798;2023-04-26T05:35:21;100437.91;;;5.99;74.11
61384;BME280;63511;49.346;8.798;2023-04-26T05:37:48;100435.56;;;6.01;74.50
61384;BME280;63511;49.346;8.798;2023-04-26T05:40:16;100432.31;;;6.12;74.17
61384;BME280;63511;49.346;8.798;2023-04-26T05:42:42;100438.06;;;6.01;76.45
61384;BME280;63511;49.346;8.798;2023-04-26T05:45:09;100437.44;;;6.32;76.05
61384;BME280;63511;49.346;8.798;2023-04-26T05:47:36;100438.63;;;6.66;74.71
61384;BME280;63511;49.346;8.798;2023-04-26T05:50:03;100443.53;;;6.84;73.78
61384;BME280;63511;49.346;8.798;2023-04-26T05:52:30;100439.53;;;6.87;73.53
61384;BME280;63511;49.346;8.798;2023-04-26T05:54:56;100437.19;;;6.98;74.32
61384;BME280;63511;49.346;8.798;2023-04-26T05:57:24;100431.78;;;7.04;73.21
61384;BME280;63511;49.346;8.798;2023-04-26T05:59:51;100435.66;;;7.20;73.67
61384;BME280;63511;49.346;8.798;2023-04-26T06:02:17;100441.69;;;7.33;74.10
61384;BME280;63511;49.346;8.798;2023-04-26T06:04:44;100439.69;;;7.29;72.11
61384;BME280;63511;49.346;8.798;2023-04-26T06:07:11;100442.06;;;7.27;71.80
61384;BME280;63511;49.346;8.798;2023-04-26T06:09:38;100446.09;;;7.35;72.29
61384;BME280;63511;49.346;8.798;2023-04-26T06:12:04;100445.19;;;7.45;72.33
61384;BME280;63511;49.346;8.798;2023-04-26T06:14:32;100446.91;;;7.66;72.36
61384;BME280;63511;49.346;8.798;2023-04-26T06:16:59;100438.44;;;7.86;71.55
61384;BME280;63511;49.346;8.798;2023-04-26T06:19:26;100439.13;;;8.05;70.87
61384;BME280;63511;49.346;8.798;2023-04-26T06:21:52;100444.25;;;7.75;70.90
61384;BME280;63511;49.346;8.798;2023-04-26T06:24:21;100445.34;;;7.88;70.39
61384;BME280;63511;49.346;8.798;2023-04-26T06:26:48;100442.00;;;8.09;70.57
61384;BME280;63511;49.346;8.798;2023-04-26T06:29:14;100442.13;;;8.11;72.77
61384;BME280;63511;49.346;8.798;2023-04-26T06:31:42;100448.34;;;8.36;70.15
61384;BME280;63511;49.346;8.798;2023-04-26T06:34:09;100441.19;;;8.52;70.97
61384;BME280;63511;49.346;8.798;2023-04-26T06:36:36;100445.41;;;8.85;69.03
61384;BME280;63511;49.346;8.798;2023-04-26T06:39:02;100446.31;;;8.76;69.40
61384;BME280;63511;49.346;8.798;2023-04-26T06:41:29;100444.22;;;8.92;68.62
61384;BME280;63511;49.346;8.798;2023-04-26T06:43:55;100435.72;;;9.13;68.63
61384;BME280;63511;49.346;8.798;2023-04-26T06:46:22;100442.63;;;9.04;66.97
61384;BME280;63511;49.346;8.798;2023-04-26T06:48:52;100438.38;;;9.15;66.18
61384;BME280;63511;49.346;8.798;2023-04-26T06:51:20;100434.69;;;9.21;65.39
61384;BME280;63511;49.346;8.798;2023-04-26T06:53:47;100426.59;;;9.37;65.19
61384;BME280;63511;49.346;8.798;2023-04-26T06:56:13;100432.28;;;9.34;65.95
61384;BME280;63511;49.346;8.798;2023-04-26T06:58:44;100432.50;;;9.26;65.22
61384;BME280;63511;49.346;8.798;2023-04-26T07:01:23;100428.16;;;9.58;63.46
61384;BME280;63511;49.346;8.798;2023-04-26T07:03:50;100425.41;;;9.55;64.76
61384;BME280;63511;49.346;8.798;2023-04-26T07:06:18;100420.91;;;9.74;64.34
61384;BME280;63511;49.346;8.798;2023-04-26T07:08:44;100422.78;;;9.89;63.54
61384;BME280;63511;49.346;8.798;2023-04-26T07:11:11;100413.66;;;10.02;63.43
61384;BME280;63511;49.346;8.798;2023-04-26T07:13:38;100422.31;;;10.17;63.78
61384;BME280;63511;49.346;8.798;2023-04-26T07:16:05;100419.38;;;9.42;62.36
61384;BME280;63511;49.346;8.798;2023-04-26T07:18:31;100414.19;;;9.40;63.17
61384;BME280;63511;49.346;8.798;2023-04-26T07:20:58;100408.31;;;9.63;62.31
61384;BME280;63511;49.346;8.798;2023-04-26T07:23:27;100407.53;;;9.75;62.77
61384;BME280;63511;49.346;8.798;2023-04-26T07:25:54;100410.31;;;10.38;62.25
61384;BME280;63511;49.346;8.798;2023-04-26T07:28:21;100397.16;;;10.67;61.64
61384;BME280;63511;49.346;8.798;2023-04-26T07:30:47;100402.16;;;11.17;60.44
61384;BME280;63511;49.346;8.798;2023-04-26T07:33:14;100411.25;;;11.01;62.14
61384;BME280;63511;49.346;8.798;2023-04-26T07:35:41;100413.34;;;10.82;60.89
61384;BME280;63511;49.346;8.798;2023-04-26T07:38:08;100415.78;;;10.94;61.17
61384;BME280;63511;49.346;8.798;2023-04-26T07:40:36;100397.25;;;11.44;60.11
61384;BME280;63511;49.346;8.798;2023-04-26T07:43:02;100397.28;;;11.84;60.07
61384;BME280;63511;49.346;8.798;2023-04-26T07:45:29;100394.75;;;11.84;58.29
61384;BME280;63511;49.346;8.798;2023-04-26T07:47:57;100397.66;;;11.90;57.87
61384;BME280;63511;49.346;8.798;2023-04-26T07:50:24;100392.78;;;12.06;57.12
61384;BME280;63511;49.346;8.798;2023-04-26T07:52:50;100394.38;;;12.32;58.29
61384;BME280;63511;49.346;8.798;2023-04-26T07:55:17;100392.59;;;11.90;57.22
61384;BME280;63511;49.346;8.798;2023-04-26T07:57:45;100396.59;;;11.60;56.25
61384;BME280;63511;49.346;8.798;2023-04-26T08:00:12;100397.88;;;11.80;57.10
61384;BME280;63511;49.346;8.798;2023-04-26T08:02:39;100404.88;;;12.38;57.45
61384;BME280;63511;49.346;8.798;2023-04-26T08:05:06;100401.06;;;11.64;57.86
61384;BME280;63511;49.346;8.798;2023-04-26T08:07:33;100406.50;;;12.78;55.78
61384;BME280;63511;49.346;8.798;2023-04-26T08:10:00;100401.47;;;12.38;53.87
61384;BME280;63511;49.346;8.798;2023-04-26T08:12:26;100402.59;;;12.70;54.22
61384;BME280;63511;49.346;8.798;2023-04-26T08:14:54;100398.75;;;12.62;53.34
61384;BME280;63511;49.346;8.798;2023-04-26T08:17:21;100398.56;;;12.18;54.71
61384;BME280;63511;49.346;8.798;2023-04-26T08:19:47;100404.47;;;11.91;50.98
61384;BME280;63511;49.346;8.798;2023-04-26T08:22:14;100400.38;;;12.47;53.87
61384;BME280;63511;49.346;8.798;2023-04-26T08:24:40;100399.28;;;12.71;53.87
61384;BME280;63511;49.346;8.798;2023-04-26T08:27:07;100399.34;;;13.01;47.88
61384;BME280;63511;49.346;8.798;2023-04-26T08:29:33;100397.34;;;12.95;45.59
61384;BME280;63511;49.346;8.798;2023-04-26T08:32:02;100392.56;;;13.44;46.43
61384;BME280;63511;49.346;8.798;2023-04-26T08:34:28;100398.56;;;13.75;47.69
61384;BME280;63511;49.346;8.798;2023-04-26T08:36:56;100389.72;;;14.30;44.97
61384;BME280;63511;49.346;8.798;2023-04-26T08:39:22;100383.63;;;13.96;46.70
61384;BME280;63511;49.346;8.798;2023-04-26T08:41:50;100383.50;;;14.40;44.54
61384;BME280;63511;49.346;8.798;2023-04-26T08:44:19;100388.75;;;14.12;46.13
61384;BME280;63511;49.346;8.798;2023-04-26T08:46:49;100386.03;;;13.93;48.26
61384;BME280;63511;49.346;8.798;2023-04-26T08:49:25;100382.16;;;13.54;47.06
61384;BME280;63511;49.346;8.798;2023-04-26T08:51:54;100389.25;;;13.30;47.23
61384;BME280;63511;49.346;8.798;2023-04-26T08:54:22;100379.81;;;13.73;46.58
61384;BME280;63511;49.346;8.798;2023-04-26T08:56:49;100369.38;;;14.30;47.24
61384;BME280;63511;49.346;8.798;2023-04-26T08:59:17;100378.53;;;14.27;46.57
61384;BME280;63511;49.346;8.798;2023-04-26T09:01:44;100366.56;;;14.57;46.78
61384;BME280;63511;49.346;8.798;2023-04-26T09:04:11;100368.84;;;14.36;44.94
61384;BME280;63511;49.346;8.798;2023-04-26T09:06:39;100369.41;;;14.95;41.86
61384;BME280;63511;49.346;8.798;2023-04-26T09:09:06;100366.56;;;14.89;43.52
61384;BME280;63511;49.346;8.798;2023-04-26T09:14:15;100371.31;;;13.87;43.88
61384;BME280;63511;49.346;8.798;2023-04-26T09:16:42;100364.13;;;14.11;45.45
61384;BME280;63511;49.346;8.798;2023-04-26T09:19:11;100365.97;;;14.44;42.62
61384;BME280;63511;49.346;8.798;2023-04-26T09:21:46;100369.09;;;13.77;46.61
61384;BME280;63511;49.346;8.798;2023-04-26T09:24:22;100365.53;;;13.90;44.44
61384;BME280;63511;49.346;8.798;2023-04-26T09:26:54;100373.06;;;14.19;44.63
61384;BME280;63511;49.346;8.798;2023-04-26T09:29:29;100360.56;;;14.55;46.07
61384;BME280;63511;49.346;8.798;2023-04-26T09:31:58;100351.69;;;14.97;44.31
61384;BME280;63511;49.346;8.798;2023-04-26T09:34:28;100349.03;;;15.29;40.30
61384;BME280;63511;49.346;8.798;2023-04-26T09:36:58;100354.38;;;14.50;44.03
61384;BME280;63511;49.346;8.798;2023-04-26T09:39:28;100349.34;;;15.17;42.10
61384;BME280;63511;49.346;8.798;2023-04-26T09:41:55;100347.81;;;14.22;42.59
61384;BME280;63511;49.346;8.798;2023-04-26T09:44:22;100353.63;;;13.89;43.75
61384;BME280;63511;49.346;8.798;2023-04-26T09:49:42;100359.91;;;13.95;42.89
61384;BME280;63511;49.346;8.798;2023-04-26T09:52:10;100363.75;;;14.36;42.19
61384;BME280;63511;49.346;8.798;2023-04-26T09:54:37;100361.50;;;14.10;41.73
61384;BME280;63511;49.346;8.798;2023-04-26T09:57:04;100353.75;;;15.21;40.13
61384;BME280;63511;49.346;8.798;2023-04-26T09:59:37;100352.59;;;14.81;41.43
61384;BME280;63511;49.346;8.798;2023-04-26T10:02:05;100355.63;;;14.58;42.91
61384;BME280;63511;49.346;8.798;2023-04-26T10:04:35;100355.38;;;14.53;42.69
61384;BME280;63511;49.346;8.798;2023-04-26T10:07:02;100354.31;;;14.82;41.75
61384;BME280;63511;49.346;8.798;2023-04-26T10:09:30;100346.22;;;15.41;40.86
61384;BME280;63511;49.346;8.798;2023-04-26T10:11:57;100343.13;;;15.64;39.59
61384;BME280;63511;49.346;8.798;2023-04-26T10:14:25;100342.09;;;14.91;37.90
61384;BME280;63511;49.346;8.798;2023-04-26T10:16:52;100339.13;;;15.00;37.77
61384;BME280;63511;49.346;8.798;2023-04-26T10:19:20;100343.38;;;15.17;41.16
61384;BME280;63511;49.346;8.798;2023-04-26T10:21:47;100332.22;;;15.15;39.93
61384;BME280;63511;49.346;8.798;2023-04-26T10:24:14;100338.38;;;14.52;40.56
61384;BME280;63511;49.346;8.798;2023-04-26T10:26:49;100331.81;;;14.39;38.22
61384;BME280;63511;49.346;8.798;2023-04-26T10:29:17;100326.25;;;14.46;39.67
61384;BME280;63511;49.346;8.798;2023-04-26T10:32:03;100331.88;;;14.25;39.12
61384;BME280;63511;49.346;8.798;2023-04-26T10:34:30;100326.75;;;14.89;38.57
61384;BME280;63511;49.346;8.798;2023-04-26T10:37:07;100313.63;;;14.82;38.79
61384;BME280;63511;49.346;8.798;2023-04-26T10:39:34;100316.72;;;14.93;38.72
61384;BME280;63511;49.346;8.798;2023-04-26T10:42:21;100326.53;;;15.03;38.03
61384;BME280;63511;49.346;8.798;2023-04-26T10:44:48;100324.13;;;14.88;38.40
61384;BME280;63511;49.346;8.798;2023-04-26T10:47:22;100318.84;;;15.19;36.27
61384;BME280;63511;49.346;8.798;2023-04-26T10:49:49;100321.13;;;15.48;40.40
61384;BME280;63511;49.346;8.798;2023-04-26T10:52:16;100309.56;;;15.19;38.18
61384;BME280;63511;49.346;8.798;2023-04-26T10:54:45;100313.81;;;15.03;40.03
61384;BME280;63511;49.346;8.798;2023-04-26T10:57:11;100313.50;;;14.79;37.02
61384;BME280;63511;49.346;8.798;2023-04-26T10:59:39;100307.84;;;14.84;38.41
61384;BME280;63511;49.346;8.798;2023-04-26T11:02:08;100310.53;;;14.87;40.35
61384;BME280;63511;49.346;8.798;2023-04-26T11:04:49;100309.66;;;15.56;37.74
61384;BME280;63511;49.346;8.798;2023-04-26T11:07:16;100301.56;;;15.65;37.53
61384;BME280;63511;49.346;8.798;2023-04-26T11:10:01;100300.75;;;14.95;35.16
61384;BME280;63511;49.346;8.798;2023-04-26T11:12:28;100300.69;;;14.77;37.57
61384;BME280;63511;49.346;8.798;2023-04-26T11:14:56;100314.50;;;14.49;37.25
61384;BME280;63511;49.346;8.798;2023-04-26T11:17:25;100293.50;;;15.20;35.36
61384;BME280;63511;49.346;8.798;2023-04-26T11:19:51;100294.84;;;15.49;40.94
61384;BME280;63511;49.346;8.798;2023-04-26T11:22:20;100284.06;;;15.18;39.46
61384;BME280;63511;49.346;8.798;2023-04-26T11:24:47;100284.63;;;15.48;37.87
61384;BME280;63511;49.346;8.798;2023-04-26T11:27:15;100287.25;;;14.96;41.87
61384;BME280;63511;49.346;8.798;2023-04-26T11:29:41;100283.13;;;15.88;36.99
61384;BME280;63511;49.346;8.798;2023-04-26T11:32:09;100270.59;;;15.93;36.87
61384;BME280;63511;49.346;8.798;2023-04-26T11:34:38;100275.09;;;15.79;40.71
61384;BME280;63511;49.346;8.798;2023-04-26T11:37:06;100277.31;;;15.54;37.97
61384;BME280;63511;49.346;8.798;2023-04-26T11:39:32;100266.50;;;15.77;37.00
61384;BME280;63511;49.346;8.798;2023-04-26T11:42:03;100258.88;;;15.24;40.54
61384;BME280;63511;49.346;8.798;2023-04-26T11:44:31;100261.66;;;15.64;36.55
61384;BME280;63511;49.346;8.798;2023-04-26T11:46:58;100267.50;;;15.81;39.74
61384;BME280;63511;49.346;8.798;2023-04-26T11:49:26;100256.25;;;16.33;36.58
61384;BME280;63511;49.346;8.798;2023-04-26T11:51:53;100261.59;;;16.79;37.90
61384;BME280;63511;49.346;8.798;2023-04-26T11:54:26;100261.31;;;16.72;35.11
61384;BME280;63511;49.346;8.798;2023-04-26T11:56:54;100261.38;;;16.94;40.75
61384;BME280;63511;49.346;8.798;2023-04-26T11:59:23;100255.81;;;16.43;36.78
61384;BME280;63511;49.346;8.798;2023-04-26T12:01:50;100258.06;;;15.97;39.02
61384;BME280;63511;49.346;8.798;2023-04-26T12:04:17;100256.44;;;16.38;40.45
61384;BME280;63511;49.346;8.798;2023-04-26T12:06:45;100253.78;;;16.15;37.09
61384;BME280;63511;49.346;8.798;2023-04-26T12:09:13;100246.63;;;16.87;37.77
61384;BME280;63511;49.346;8.798;2023-04-26T12:11:41;100249.53;;;16.96;38.36
61384;BME280;63511;49.346;8.798;2023-04-26T12:14:14;100248.53;;;17.13;41.56
61384;BME280;63511;49.346;8.798;2023-04-26T12:16:41;100245.69;;;16.05;34.76
61384;BME280;63511;49.346;8.798;2023-04-26T12:19:10;100243.84;;;16.41;35.36
61384;BME280;63511;49.346;8.798;2023-04-26T12:21:40;100244.75;;;16.62;39.00
61384;BME280;63511;49.346;8.798;2023-04-26T12:27:20;100251.41;;;16.79;38.45
61384;BME280;63511;49.346;8.798;2023-04-26T12:29:47;100242.16;;;16.22;40.24
61384;BME280;63511;49.346;8.798;2023-04-26T12:32:13;100238.69;;;16.20;38.88
61384;BME280;63511;49.346;8.798;2023-04-26T12:34:40;100242.22;;;16.24;37.80
61384;BME280;63511;49.346;8.798;2023-04-26T12:37:08;100250.16;;;15.19;35.66
61384;BME280;63511;49.346;8.798;2023-04-26T12:39:38;100241.44;;;15.86;39.70
61384;BME280;63511;49.346;8.798;2023-04-26T12:42:10;100240.69;;;15.69;38.26
61384;BME280;63511;49.346;8.798;2023-04-26T12:44:46;100241.09;;;15.98;39.25
61384;BME280;63511;49.346;8.798;2023-04-26T12:47:18;100240.47;;;16.61;40.79
61384;BME280;63511;49.346;8.798;2023-04-26T12:49:53;100232.75;;;16.80;38.80
61384;BME280;63511;49.346;8.798;2023-04-26T12:52:24;100233.06;;;17.09;35.76
61384;BME280;63511;49.346;8.798;2023-04-26T12:55:02;100237.84;;;16.80;35.99
61384;BME280;63511;49.346;8.798;2023-04-26T12:57:35;100239.41;;;16.97;39.36
61384;BME280;63511;49.346;8.798;2023-04-26T13:00:08;100234.28;;;16.56;40.16
61384;BME280;63511;49.346;8.798;2023-04-26T13:02:35;100232.88;;;16.43;39.52
61384;BME280;63511;49.346;8.798;2023-04-26T13:05:02;100239.84;;;16.67;38.49
61384;BME280;63511;49.346;8.798;2023-04-26T13:07:30;100235.28;;;17.01;36.48